Time;durP1;ratioP1;P1;durP2;ratioP2;P2;SDS_P1;SDS_P2;PMS_P1;PMS_P2;Temp;Humidity;BMP_temperature;BMP_pressure;BME280_temperature;BME280_humidity;BME280_pressure;Samples;Min_cycle;Max_cycle;Signal;HPM_P1;HPM_P2
2022/11/20 00:00:51;;;;;;;32.73;15.80;;;-1.20;99.90;;;;;;5052949;28;20580;-53
2022/11/20 00:03:17;;;;;;;32.17;16.50;;;-1.20;99.90;;;;;;5053439;28;20469;-50
2022/11/20 00:05:43;;;;;;;35.57;17.07;;;-1.20;99.90;;;;;;5053283;28;20032;-55
2022/11/20 00:08:09;;;;;;;30.73;15.23;;;-1.20;99.90;;;;;;5053005;28;20025;-52
2022/11/20 00:10:39;;;;;;;33.87;16.67;;;-1.10;99.90;;;;;;5052812;28;20024;-53
2022/11/20 00:13:05;;;;;;;;;;;-1.10;99.90;;;;;;5053463;28;20120;-55
2022/11/20 00:15:31;;;;;;;34.77;16.57;;;-1.20;99.90;;;;;;5052786;28;19913;-55
2022/11/20 00:17:56;;;;;;;33.30;16.23;;;-1.30;99.90;;;;;;5053022;28;20037;-53
2022/11/20 00:20:22;;;;;;;32.53;16.27;;;-1.30;99.90;;;;;;5052615;28;20128;-54
2022/11/20 00:22:49;;;;;;;36.13;17.50;;;-1.30;99.90;;;;;;5053027;28;20048;-54
2022/11/20 00:25:14;;;;;;;33.43;16.90;;;-1.30;99.90;;;;;;5052724;28;20029;-52
2022/11/20 00:27:40;;;;;;;38.50;17.30;;;-1.20;99.90;;;;;;5052519;28;20032;-56
2022/11/20 00:30:07;;;;;;;33.80;16.93;;;-1.10;99.90;;;;;;5052413;28;20035;-52
2022/11/20 00:32:33;;;;;;;30.97;16.77;;;-1.10;99.90;;;;;;5052963;28;20029;-53
2022/11/20 00:34:58;;;;;;;33.17;17.00;;;-1.10;99.90;;;;;;5052421;28;20029;-54
2022/11/20 00:37:24;;;;;;;35.43;16.97;;;-1.10;99.90;;;;;;5052397;28;20056;-55
2022/11/20 00:39:50;;;;;;;36.97;17.67;;;-1.20;99.90;;;;;;5052278;28;20021;-55
2022/11/20 00:42:15;;;;;;;34.07;17.77;;;-1.20;99.90;;;;;;5052501;28;20052;-55
2022/11/20 00:44:41;;;;;;;38.07;18.33;;;-1.10;99.90;;;;;;5052308;28;20040;-55
2022/11/20 00:47:07;;;;;;;35.20;17.80;;;-1.10;99.90;;;;;;5052213;28;20025;-54
2022/11/20 00:49:32;;;;;;;33.73;17.83;;;-1.20;99.90;;;;;;5052048;28;20032;-53
2022/11/20 00:51:58;;;;;;;34.80;18.07;;;-1.20;99.90;;;;;;5052283;28;20033;-53
2022/11/20 00:54:24;;;;;;;37.27;17.93;;;-1.20;99.90;;;;;;5051672;28;20033;-54
2022/11/20 00:56:49;;;;;;;34.83;17.10;;;-1.10;99.90;;;;;;5051703;28;20108;-54
2022/11/20 00:59:15;;;;;;;34.70;17.63;;;-1.00;99.90;;;;;;5051820;28;20505;-55
2022/11/20 01:01:41;;;;;;;34.37;17.90;;;-1.10;99.90;;;;;;5052089;28;20025;-54
2022/11/20 01:04:06;;;;;;;36.53;18.33;;;-1.00;99.90;;;;;;5052010;28;20110;-54
2022/11/20 01:06:34;;;;;;;31.23;17.27;;;-1.00;99.90;;;;;;5052062;28;20031;-52
2022/11/20 01:09:03;;;;;;;32.90;17.50;;;-1.10;99.90;;;;;;5051719;28;20033;-55
2022/11/20 01:11:34;;;;;;;37.30;18.58;;;-1.30;99.90;;;;;;5051746;28;20025;-56
2022/11/20 01:14:02;;;;;;;34.50;17.13;;;-1.20;99.90;;;;;;5051562;28;20041;-54
2022/11/20 01:16:33;;;;;;;35.13;17.70;;;-1.30;99.90;;;;;;5051777;28;20067;-55
2022/11/20 01:19:00;;;;;;;36.37;17.67;;;-1.40;99.90;;;;;;5051574;28;20036;-56
2022/11/20 01:21:32;;;;;;;37.00;17.70;;;-1.50;99.90;;;;;;5051554;28;20470;-55
2022/11/20 01:23:58;;;;;;;35.93;18.23;;;-1.50;99.90;;;;;;5051563;28;20036;-54
2022/11/20 01:26:27;;;;;;;36.77;18.53;;;-1.40;99.90;;;;;;5051388;28;20040;-55
2022/11/20 01:28:53;;;;;;;37.50;18.45;;;-1.30;99.90;;;;;;5051531;28;20033;-54
2022/11/20 01:31:31;;;;;;;37.57;19.20;;;-1.30;99.90;;;;;;5051279;28;20489;-52
2022/11/20 01:33:59;;;;;;;37.70;18.77;;;-1.30;99.90;;;;;;5051295;28;20033;-54
2022/11/20 01:36:28;;;;;;;39.87;19.70;;;-1.30;99.90;;;;;;5051295;28;20485;-53
2022/11/20 01:38:56;;;;;;;36.50;18.25;;;-1.20;99.90;;;;;;5051255;28;20032;-56
2022/11/20 01:44:11;;;;;;;39.80;19.13;;;-1.20;99.90;;;;;;5051217;28;20044;-56
2022/11/20 01:46:39;;;;;;;37.47;19.10;;;-1.10;99.90;;;;;;5051134;28;20037;-55
2022/11/20 01:49:15;;;;;;;38.43;19.27;;;-1.00;99.90;;;;;;5050973;28;20037;-53
2022/11/20 01:51:56;;;;;;;36.37;18.43;;;-1.00;99.90;;;;;;5051194;28;20033;-54
2022/11/20 01:54:31;;;;;;;32.83;17.57;;;-0.90;99.90;;;;;;5051286;28;20029;-56
2022/11/20 01:56:59;;;;;;;44.93;19.03;;;-0.90;99.90;;;;;;5050887;28;20060;-54
2022/11/20 01:59:27;;;;;;;38.40;18.47;;;-0.90;99.90;;;;;;5050750;28;20025;-55
2022/11/20 02:01:53;;;;;;;35.13;17.37;;;-0.90;99.90;;;;;;5049671;28;20128;-54
2022/11/20 02:04:20;;;;;;;38.80;19.10;;;-0.90;99.90;;;;;;5050907;28;20543;-52
2022/11/20 02:06:59;;;;;;;35.53;17.90;;;-0.90;99.90;;;;;;5049799;28;20036;-54
2022/11/20 02:09:25;;;;;;;36.07;18.97;;;-0.90;99.90;;;;;;5050716;28;20064;-53
2022/11/20 02:11:52;;;;;;;35.80;18.87;;;-1.00;99.90;;;;;;5050738;28;20382;-54
2022/11/20 02:14:18;;;;;;;35.47;18.20;;;-0.90;99.90;;;;;;5050399;28;20036;-54
2022/11/20 02:16:47;;;;;;;36.83;18.10;;;-0.80;99.90;;;;;;5050638;28;20025;-55
2022/11/20 02:19:24;;;;;;;34.80;18.00;;;-0.80;99.90;;;;;;5050811;28;20160;-55
2022/11/20 02:22:24;;;;;;;37.47;18.33;;;-0.80;99.90;;;;;;5050603;28;20025;-53
2022/11/20 02:24:51;;;;;;;36.10;18.47;;;-0.80;99.90;;;;;;5050477;28;20044;-55
2022/11/20 02:27:17;;;;;;;34.90;18.93;;;-0.80;99.90;;;;;;5050452;28;20048;-50
2022/11/20 02:29:56;;;;;;;39.47;18.40;;;-0.70;99.90;;;;;;5050414;28;20131;-51
2022/11/20 02:32:26;;;;;;;36.42;18.73;;;-0.60;99.90;;;;;;5050557;28;20078;-54
2022/11/20 02:34:52;;;;;;;34.47;18.13;;;-0.60;99.90;;;;;;5050366;28;20108;-54
2022/11/20 02:37:19;;;;;;;38.67;18.40;;;-0.60;99.90;;;;;;5050299;28;20025;-53
2022/11/20 02:39:48;;;;;;;37.30;18.93;;;-0.50;99.90;;;;;;5050234;28;20060;-54
2022/11/20 02:42:13;;;;;;;36.50;17.67;;;-0.50;99.90;;;;;;5050504;28;20060;-53
2022/11/20 02:44:39;;;;;;;37.33;17.97;;;-0.40;99.90;;;;;;5050319;28;20068;-52
2022/11/20 02:47:05;;;;;;;36.57;17.27;;;-0.30;99.90;;;;;;5050270;28;20070;-52
2022/11/20 02:49:31;;;;;;;38.60;18.27;;;-0.30;99.90;;;;;;5050097;28;20116;-52
2022/11/20 02:51:57;;;;;;;34.77;17.80;;;-0.20;99.90;;;;;;5050332;28;20033;-52
2022/11/20 02:54:23;;;;;;;36.50;18.93;;;-0.30;99.90;;;;;;5050057;28;20371;-53
2022/11/20 02:56:49;;;;;;;36.00;17.77;;;-0.30;99.90;;;;;;5050367;28;20104;-55
2022/11/20 02:59:14;;;;;;;37.23;18.30;;;-0.40;99.90;;;;;;5050140;28;20116;-53
2022/11/20 03:01:40;;;;;;;35.97;18.60;;;-0.30;99.90;;;;;;5050308;28;20209;-52
2022/11/20 03:04:06;;;;;;;35.53;18.37;;;-0.30;99.90;;;;;;5050047;28;20064;-53
2022/11/20 03:06:32;;;;;;;35.20;18.03;;;-0.30;99.90;;;;;;5050265;28;20029;-55
2022/11/20 03:08:58;;;;;;;31.10;16.90;;;-0.30;99.90;;;;;;5050486;28;20223;-55
2022/11/20 03:11:23;;;;;;;38.77;18.57;;;-0.30;99.90;;;;;;5050051;28;20052;-55
2022/11/20 03:13:49;;;;;;;36.57;17.93;;;-0.30;99.90;;;;;;5049918;28;20108;-51
2022/11/20 03:16:20;;;;;;;37.20;18.47;;;-0.20;99.90;;;;;;5050408;28;20493;-56
2022/11/20 03:18:46;;;;;;;36.83;18.40;;;-0.10;99.90;;;;;;5051883;28;20258;-54
2022/11/20 03:21:14;;;;;;;39.30;18.83;;;-0.10;99.90;;;;;;5053981;28;20025;-52
2022/11/20 03:23:40;;;;;;;34.37;18.17;;;-0.10;99.90;;;;;;5054012;28;20121;-53
2022/11/20 03:26:10;;;;;;;33.10;17.70;;;0.00;99.90;;;;;;5053938;28;20367;-56
2022/11/20 03:28:36;;;;;;;33.10;17.27;;;0.10;99.90;;;;;;5053515;28;20028;-54
2022/11/20 03:31:11;;;;;;;33.50;17.53;;;0.00;99.90;;;;;;5054273;28;20485;-53
2022/11/20 03:33:38;;;;;;;35.00;18.47;;;0.00;99.90;;;;;;5053672;28;20548;-52
2022/11/20 03:36:06;;;;;;;31.30;17.20;;;0.00;99.90;;;;;;5053654;28;20123;-55
2022/11/20 03:38:32;;;;;;;38.00;18.23;;;0.00;99.90;;;;;;5053533;28;20037;-51
2022/11/20 03:41:00;;;;;;;33.30;16.83;;;0.00;99.90;;;;;;5053537;28;20108;-54
2022/11/20 03:43:26;;;;;;;36.33;18.27;;;0.10;99.90;;;;;;5053436;28;20033;-56
2022/11/20 03:45:52;;;;;;;37.07;17.73;;;0.20;99.90;;;;;;5053376;28;20116;-53
2022/11/20 03:48:18;;;;;;;32.10;17.90;;;0.30;99.90;;;;;;5053430;28;20535;-51
2022/11/20 03:50:43;;;;;;;32.37;17.67;;;0.30;99.90;;;;;;5053361;28;20037;-54
2022/11/20 03:53:09;;;;;;;37.83;18.53;;;0.40;99.90;;;;;;5053404;28;20037;-55
2022/11/20 03:55:35;;;;;;;33.20;17.10;;;0.30;99.90;;;;;;5053268;28;20025;-53
2022/11/20 03:58:00;;;;;;;35.20;18.40;;;0.40;99.90;;;;;;5053139;28;20115;-50
2022/11/20 04:00:26;;;;;;;32.83;17.63;;;0.50;99.90;;;;;;5052958;28;20075;-55
2022/11/20 04:02:52;;;;;;;35.07;17.97;;;0.50;99.90;;;;;;5053488;28;20021;-56
2022/11/20 04:05:18;;;;;;;35.73;18.50;;;0.50;99.90;;;;;;5053111;28;20068;-55
2022/11/20 04:07:43;;;;;;;31.97;17.13;;;0.50;99.90;;;;;;5052813;28;20040;-57
2022/11/20 04:10:09;;;;;;;34.20;17.93;;;0.50;99.90;;;;;;5052889;28;20110;-54
2022/11/20 04:12:35;;;;;;;33.90;18.50;;;0.60;99.90;;;;;;5053085;28;20032;-57
2022/11/20 04:15:01;;;;;;;33.57;18.00;;;0.70;99.90;;;;;;5065970;22;20134;-58
2022/11/20 04:17:26;;;;;;;30.57;17.20;;;0.70;99.90;;;;;;5052831;28;20489;-58
2022/11/20 04:19:52;;;;;;;39.27;18.83;;;0.70;99.90;;;;;;5052289;28;20367;-57
2022/11/20 04:22:17;;;;;;;34.30;17.53;;;0.60;99.90;;;;;;5053124;28;20091;-59
2022/11/20 04:24:43;;;;;;;33.07;16.97;;;0.70;99.90;;;;;;5052689;28;20099;-58
2022/11/20 04:27:09;;;;;;;33.93;18.47;;;0.70;99.90;;;;;;5052398;28;20382;-58
2022/11/20 04:29:34;;;;;;;33.60;18.47;;;0.80;99.90;;;;;;5051251;28;20120;-59
2022/11/20 04:32:00;;;;;;;32.80;18.10;;;0.80;99.90;;;;;;5052754;28;20051;-59
2022/11/20 04:34:26;;;;;;;37.00;19.43;;;0.90;99.90;;;;;;5052447;28;20462;-58
2022/11/20 04:36:51;;;;;;;35.47;18.20;;;0.90;99.90;;;;;;5052811;28;20025;-59
2022/11/20 04:39:17;;;;;;;33.90;18.07;;;0.90;99.90;;;;;;5052188;28;20032;-59
2022/11/20 04:41:43;;;;;;;34.20;18.40;;;0.90;99.90;;;;;;5050909;28;20029;-59
2022/11/20 04:44:09;;;;;;;33.30;17.77;;;0.90;99.90;;;;;;5052339;28;20056;-59
2022/11/20 04:46:38;;;;;;;30.40;17.40;;;0.90;99.90;;;;;;5052276;28;20095;-58
2022/11/20 04:49:04;;;;;;;33.90;18.50;;;0.90;99.90;;;;;;5052193;28;20409;-58
2022/11/20 04:51:30;;;;;;;33.43;18.23;;;0.90;99.90;;;;;;5052174;28;20072;-58
2022/11/20 04:53:56;;;;;;;32.17;17.50;;;1.00;99.90;;;;;;5052145;28;20068;-58
2022/11/20 04:56:22;;;;;;;35.27;17.53;;;1.10;99.90;;;;;;5051856;28;20052;-58
2022/11/20 04:58:48;;;;;;;36.70;18.63;;;1.10;99.90;;;;;;5052331;28;20056;-58
2022/11/20 05:01:16;;;;;;;32.70;17.97;;;1.10;99.90;;;;;;5051923;28;20025;-59
2022/11/20 05:03:43;;;;;;;33.53;17.93;;;1.20;99.90;;;;;;5051891;28;20029;-58
2022/11/20 05:06:10;;;;;;;33.37;18.73;;;1.20;99.90;;;;;;5051786;28;20029;-59
2022/11/20 05:08:36;;;;;;;33.67;17.93;;;1.30;99.90;;;;;;5051490;28;20021;-59
2022/11/20 05:11:11;;;;;;;34.57;17.70;;;1.30;99.90;;;;;;5051613;28;20054;-59
2022/11/20 05:13:37;;;;;;;31.73;17.17;;;1.30;99.90;;;;;;5051706;28;20068;-59
2022/11/20 05:16:05;;;;;;;32.23;18.30;;;1.30;99.90;;;;;;5051660;28;20024;-59
2022/11/20 05:18:31;;;;;;;35.43;18.53;;;1.30;99.90;;;;;;5051534;28;20068;-59
2022/11/20 05:20:57;;;;;;;33.67;18.30;;;1.40;99.90;;;;;;5050428;28;20489;-59
2022/11/20 05:23:24;;;;;;;33.40;18.93;;;1.40;99.90;;;;;;5051549;28;20052;-59
2022/11/20 05:25:53;;;;;;;39.30;21.30;;;1.40;99.90;;;;;;5051880;28;20060;-60
2022/11/20 05:28:19;;;;;;;38.42;20.52;;;1.40;99.90;;;;;;5051385;28;20082;-58
2022/11/20 05:30:45;;;;;;;38.67;21.77;;;1.50;99.90;;;;;;5051174;28;20437;-60
2022/11/20 05:33:10;;;;;;;36.17;20.57;;;1.50;99.90;;;;;;5051343;28;20053;-59
2022/11/20 05:35:36;;;;;;;38.37;21.97;;;1.50;99.90;;;;;;5051355;28;20493;-60
2022/11/20 05:38:01;;;;;;;39.47;21.10;;;1.50;99.90;;;;;;5051183;28;20025;-59
2022/11/20 05:40:27;;;;;;;41.43;22.47;;;1.40;99.90;;;;;;5051138;28;20030;-59
2022/11/20 05:42:53;;;;;;;37.97;21.90;;;1.40;99.90;;;;;;5051356;28;20029;-59
2022/11/20 05:45:19;;;;;;;38.27;22.07;;;1.40;99.90;;;;;;5051513;28;20075;-60
2022/11/20 05:47:44;;;;;;;43.60;22.83;;;1.40;99.90;;;;;;5051074;28;20061;-59
2022/11/20 05:50:10;;;;;;;43.17;24.03;;;1.40;99.90;;;;;;5050945;28;20033;-59
2022/11/20 05:52:36;;;;;;;43.00;24.30;;;1.40;99.90;;;;;;5051028;28;20028;-59
2022/11/20 05:55:01;;;;;;;41.80;24.63;;;1.40;99.90;;;;;;5050992;28;20036;-59
2022/11/20 05:57:27;;;;;;;43.57;24.27;;;1.50;99.90;;;;;;5050903;28;20493;-58
2022/11/20 05:59:53;;;;;;;46.23;24.13;;;1.50;99.90;;;;;;5050931;28;20029;-59
2022/11/20 06:02:18;;;;;;;45.57;24.47;;;1.50;99.90;;;;;;5051000;28;20067;-59
2022/11/20 06:04:44;;;;;;;43.57;24.37;;;1.50;99.90;;;;;;5051329;28;20040;-59
2022/11/20 06:07:10;;;;;;;45.13;24.70;;;1.50;99.90;;;;;;5050657;28;20516;-59
2022/11/20 06:09:36;;;;;;;42.67;23.47;;;1.40;99.90;;;;;;5050626;28;20044;-59
2022/11/20 06:12:01;;;;;;;41.53;23.83;;;1.40;99.90;;;;;;5050852;28;20021;-59
2022/11/20 06:14:27;;;;;;;42.17;23.77;;;1.50;99.90;;;;;;5050758;28;20099;-59
2022/11/20 06:16:53;;;;;;;39.40;22.67;;;1.50;99.90;;;;;;5050672;28;20029;-59
2022/11/20 06:19:18;;;;;;;45.60;24.50;;;1.50;99.90;;;;;;5050538;28;20441;-59
2022/11/20 06:21:44;;;;;;;45.90;24.30;;;1.50;99.90;;;;;;5050677;28;20032;-59
2022/11/20 06:24:10;;;;;;;45.60;25.17;;;1.50;99.90;;;;;;5050554;28;20141;-58
2022/11/20 06:26:37;;;;;;;46.17;23.57;;;1.40;99.90;;;;;;5050434;28;20201;-59
2022/11/20 06:29:03;;;;;;;44.53;24.23;;;1.40;99.90;;;;;;5050438;28;20074;-58
2022/11/20 06:31:28;;;;;;;44.47;23.73;;;1.30;99.90;;;;;;5050527;28;20035;-60
2022/11/20 06:33:54;;;;;;;42.80;22.47;;;1.30;99.90;;;;;;5050570;28;20351;-59
2022/11/20 06:36:22;;;;;;;37.87;22.33;;;1.30;99.90;;;;;;5050146;28;20031;-59
2022/11/20 06:38:48;;;;;;;43.23;22.50;;;1.30;99.90;;;;;;5050295;28;20028;-59
2022/11/20 06:41:16;;;;;;;43.50;23.63;;;1.30;99.90;;;;;;5050425;28;20033;-59
2022/11/20 06:43:42;;;;;;;41.50;22.67;;;1.20;99.90;;;;;;5050759;28;20079;-59
2022/11/20 06:46:10;;;;;;;39.53;21.97;;;1.10;99.90;;;;;;5050487;28;20625;-59
2022/11/20 06:48:35;;;;;;;42.67;24.50;;;1.20;99.90;;;;;;5049975;28;20048;-59
2022/11/20 06:51:04;;;;;;;42.57;23.40;;;1.20;99.90;;;;;;5050288;28;20493;-59
2022/11/20 06:53:29;;;;;;;40.30;22.73;;;1.30;99.90;;;;;;5051856;28;20044;-59
2022/11/20 06:55:57;;;;;;;44.67;23.47;;;1.20;99.90;;;;;;5054649;28;20405;-59
2022/11/20 06:58:26;;;;;;;42.77;23.83;;;1.30;99.90;;;;;;5054149;28;20074;-59
2022/11/20 07:00:51;;;;;;;44.07;23.70;;;1.40;99.90;;;;;;5054133;28;20029;-59
2022/11/20 07:03:17;;;;;;;41.67;23.57;;;1.40;99.90;;;;;;5054315;28;20078;-59
2022/11/20 07:05:43;;;;;;;39.60;22.07;;;1.40;99.90;;;;;;5054217;28;20482;-59
2022/11/20 07:08:09;;;;;;;38.83;21.13;;;1.40;99.90;;;;;;5054091;28;20571;-59
2022/11/20 07:10:35;;;;;;;40.07;21.80;;;1.30;99.90;;;;;;5053947;28;20025;-59
2022/11/20 07:13:01;;;;;;;38.37;20.67;;;1.20;99.90;;;;;;5054195;28;20063;-59
2022/11/20 07:15:27;;;;;;;43.77;22.50;;;1.20;99.90;;;;;;5052836;28;20421;-59
2022/11/20 07:17:53;;;;;;;37.90;20.43;;;1.20;99.90;;;;;;5053808;28;20033;-59
2022/11/20 07:20:18;;;;;;;42.10;22.83;;;1.10;99.90;;;;;;5053826;28;20028;-58
2022/11/20 07:22:44;;;;;;;43.63;21.90;;;1.10;99.90;;;;;;5054170;28;20044;-59
2022/11/20 07:25:10;;;;;;;41.43;22.67;;;1.10;99.90;;;;;;5053962;28;20082;-59
2022/11/20 07:27:36;;;;;;;38.87;21.17;;;1.20;99.90;;;;;;5053760;28;20029;-60
2022/11/20 07:30:03;;;;;;;44.63;22.73;;;1.20;99.90;;;;;;5053592;28;20082;-59
2022/11/20 07:32:29;;;;;;;43.63;22.57;;;1.30;99.90;;;;;;5053844;28;20044;-58
2022/11/20 07:34:55;;;;;;;41.23;20.53;;;1.40;99.90;;;;;;5053738;28;20370;-59
2022/11/20 07:37:21;;;;;;;40.27;21.10;;;1.40;99.90;;;;;;5053571;28;20056;-59
2022/11/20 07:39:47;;;;;;;43.40;21.77;;;1.40;99.90;;;;;;5053601;28;20044;-58
2022/11/20 07:42:13;;;;;;;39.60;21.27;;;1.40;99.90;;;;;;5053618;28;20021;-58
2022/11/20 07:44:39;;;;;;;40.50;22.17;;;1.40;99.90;;;;;;5053660;28;20025;-58
2022/11/20 07:47:05;;;;;;;37.63;20.80;;;1.50;99.90;;;;;;5053291;28;20481;-59
2022/11/20 07:49:31;;;;;;;45.63;21.10;;;1.50;99.90;;;;;;5053227;28;20036;-59
2022/11/20 07:51:56;;;;;;;38.97;21.37;;;1.60;99.90;;;;;;5053424;28;20025;-58
2022/11/20 07:54:22;;;;;;;43.37;20.90;;;1.70;99.90;;;;;;5053624;28;20477;-59
2022/11/20 07:56:49;;;;;;;40.33;19.97;;;1.80;99.90;;;;;;5053336;28;20044;-58
2022/11/20 07:59:15;;;;;;;35.40;19.90;;;1.90;99.90;;;;;;5053068;28;20048;-57
2022/11/20 08:01:42;;;;;;;38.53;21.43;;;1.90;99.90;;;;;;5053153;28;20032;-58
2022/11/20 08:04:09;;;;;;;39.53;20.87;;;2.00;99.90;;;;;;5053259;28;20050;-59
2022/11/20 08:06:36;;;;;;;39.43;20.70;;;2.00;99.90;;;;;;5053025;28;20033;-59
2022/11/20 08:09:02;;;;;;;37.50;20.57;;;2.10;99.90;;;;;;5053095;28;20033;-59
2022/11/20 08:14:12;;;;;;;44.47;26.07;;;2.20;99.90;;;;;;5052786;28;20111;-59
2022/11/20 08:16:39;;;;;;;37.40;21.33;;;2.20;99.90;;;;;;5052705;28;20108;-59
2022/11/20 08:19:05;;;;;;;43.60;23.03;;;2.10;99.90;;;;;;5052731;28;20025;-60
2022/11/20 08:21:31;;;;;;;36.83;20.30;;;2.00;99.90;;;;;;5053054;28;20048;-58
2022/11/20 08:23:58;;;;;;;36.17;19.90;;;2.00;99.90;;;;;;5052908;28;20485;-59
2022/11/20 08:26:24;;;;;;;41.20;20.93;;;2.10;99.90;;;;;;5052603;28;20514;-60
2022/11/20 08:28:54;;;;;;;36.67;20.00;;;2.00;99.90;;;;;;5052459;28;20040;-59
2022/11/20 08:31:20;;;;;;;35.07;19.77;;;2.00;99.90;;;;;;5052617;28;20033;-59
2022/11/20 08:33:46;;;;;;;38.17;19.90;;;2.10;99.90;;;;;;5052784;28;20043;-59
2022/11/20 08:36:11;;;;;;;35.07;19.50;;;2.20;99.90;;;;;;5052575;28;20029;-59
2022/11/20 08:38:37;;;;;;;37.20;20.90;;;2.30;99.90;;;;;;5052305;28;20021;-59
2022/11/20 08:43:48;;;;;;;33.87;19.80;;;2.40;99.90;;;;;;5052691;28;20040;-59
2022/11/20 08:46:17;;;;;;;40.73;21.37;;;2.50;99.90;;;;;;5051087;28;20488;-59
2022/11/20 08:48:43;;;;;;;37.93;20.03;;;2.60;99.90;;;;;;5052231;28;20097;-59
2022/11/20 08:51:09;;;;;;;35.87;20.70;;;2.60;99.90;;;;;;5052407;28;20597;-59
2022/11/20 08:53:35;;;;;;;41.47;22.63;;;2.60;99.90;;;;;;5052224;28;20039;-59
2022/11/20 08:56:01;;;;;;;38.27;21.17;;;2.60;99.90;;;;;;5052173;28;20116;-59
2022/11/20 08:58:27;;;;;;;42.23;21.47;;;2.70;99.90;;;;;;5052075;28;20029;-59
2022/11/20 09:00:53;;;;;;;39.20;20.17;;;2.80;99.90;;;;;;5050801;28;20036;-59
2022/11/20 09:03:19;;;;;;;35.63;19.47;;;2.90;99.90;;;;;;5052333;28;20377;-58
2022/11/20 09:05:44;;;;;;;32.97;19.00;;;2.90;99.90;;;;;;5051999;28;20024;-59
2022/11/20 09:08:10;;;;;;;35.60;20.33;;;2.90;99.90;;;;;;5051914;28;20033;-59
2022/11/20 09:10:36;;;;;;;43.87;22.83;;;3.00;99.90;;;;;;5051779;28;20116;-59
2022/11/20 09:13:02;;;;;;;36.33;19.83;;;3.00;99.90;;;;;;5052031;28;20064;-59
2022/11/20 09:15:28;;;;;;;36.47;19.53;;;3.10;99.90;;;;;;5051234;28;20029;-59
2022/11/20 09:17:55;;;;;;;64.80;32.30;;;3.10;99.90;;;;;;5051649;28;20508;-59
2022/11/20 09:20:21;;;;;;;46.50;24.30;;;3.00;99.90;;;;;;5051518;28;20036;-58
2022/11/20 09:22:47;;;;;;;39.60;20.63;;;3.10;99.90;;;;;;5051726;28;20078;-60
2022/11/20 09:25:13;;;;;;;33.83;19.43;;;3.00;99.90;;;;;;5051584;28;20083;-59
2022/11/20 09:27:38;;;;;;;34.63;19.13;;;3.00;99.90;;;;;;5051470;28;20116;-58
2022/11/20 09:30:05;;;;;;;33.20;18.47;;;2.90;99.90;;;;;;5051496;28;20040;-59
2022/11/20 09:32:31;;;;;;;32.97;19.13;;;2.90;99.90;;;;;;5051565;28;20029;-59
2022/11/20 09:34:56;;;;;;;31.27;18.13;;;2.90;99.90;;;;;;5051375;28;20095;-59
2022/11/20 09:37:22;;;;;;;38.00;19.07;;;2.80;99.90;;;;;;5051419;28;20116;-59
2022/11/20 09:39:48;;;;;;;32.23;17.60;;;2.90;99.90;;;;;;5051291;28;20210;-59
2022/11/20 09:42:44;;;;;;;27.00;16.17;;;3.30;99.90;;;;;;5051446;28;20070;-59
2022/11/20 09:45:10;;;;;;;27.43;15.40;;;3.40;99.90;;;;;;5051392;28;20115;-59
2022/11/20 09:47:45;;;;;;;28.23;16.40;;;3.60;99.90;;;;;;5051219;28;20029;-59
2022/11/20 09:50:31;;;;;;;30.33;16.67;;;3.60;99.90;;;;;;5051066;28;20062;-59
2022/11/20 09:53:12;;;;;;;26.83;15.40;;;3.60;99.90;;;;;;5051247;28;20076;-59
2022/11/20 09:55:39;;;;;;;29.43;15.80;;;3.50;99.90;;;;;;5050928;28;20401;-59
2022/11/20 09:58:21;;;;;;;25.93;15.07;;;3.70;99.90;;;;;;5050867;28;20381;-59
2022/11/20 10:00:47;;;;;;;25.17;15.20;;;3.90;99.90;;;;;;5050690;28;20082;-59
2022/11/20 10:03:21;;;;;;;26.00;15.00;;;4.10;99.90;;;;;;5050833;28;20036;-59
2022/11/20 10:05:54;;;;;;;26.57;15.60;;;4.30;99.90;;;;;;5050868;28;20033;-59
2022/11/20 10:08:31;;;;;;;32.07;17.27;;;4.30;99.90;;;;;;5050615;28;20102;-59
2022/11/20 10:11:12;;;;;;;27.97;17.20;;;4.20;99.90;;;;;;5050657;28;20037;-59
2022/11/20 10:13:59;;;;;;;28.03;16.83;;;4.10;99.90;;;;;;5050639;28;20033;-59
2022/11/20 10:16:54;;;;;;;30.43;17.17;;;4.10;99.90;;;;;;5064052;22;20041;-54
2022/11/20 10:19:23;;;;;;;29.93;17.53;;;4.00;99.90;;;;;;5050088;28;20393;-51
2022/11/20 10:22:16;;;;;;;32.20;17.52;;;4.10;99.90;;;;;;5050514;28;20640;-52
2022/11/20 10:25:06;;;;;;;26.77;16.33;;;4.20;99.90;;;;;;5050392;28;20060;-54
2022/11/20 10:27:47;;;;;;;27.93;16.73;;;4.10;99.90;;;;;;5049468;28;20091;-52
2022/11/20 10:30:19;;;;;;;27.43;15.17;;;4.20;99.90;;;;;;5050230;28;20442;-56
2022/11/20 10:33:16;;;;;;;29.63;16.30;;;4.20;99.90;;;;;;5050461;28;20036;-49
2022/11/20 10:35:49;;;;;;;31.57;15.43;;;4.20;99.90;;;;;;5044293;28;20106;-52
2022/11/20 10:38:38;;;;;;;26.50;14.40;;;4.20;99.90;;;;;;5048880;28;20029;-49
2022/11/20 10:41:24;;;;;;;26.92;14.60;;;4.20;99.90;;;;;;5050341;28;20033;-52
2022/11/20 10:44:05;;;;;;;28.13;15.10;;;4.10;99.90;;;;;;5050085;28;20035;-53
2022/11/20 10:46:40;;;;;;;24.93;14.33;;;4.20;99.90;;;;;;5049639;28;20083;-50
2022/11/20 10:49:18;;;;;;;26.07;14.47;;;4.20;99.90;;;;;;5049948;28;20025;-50
2022/11/20 10:52:17;;;;;;;26.40;13.77;;;4.30;99.90;;;;;;5050119;28;20040;-52
2022/11/20 10:54:58;;;;;;;27.10;13.97;;;4.30;99.90;;;;;;5044711;28;20390;-53
2022/11/20 10:57:45;;;;;;;25.07;13.80;;;4.40;99.90;;;;;;5050263;28;20420;-53
2022/11/20 11:00:13;;;;;;;25.33;14.40;;;4.50;99.90;;;;;;5050087;28;20025;-53
2022/11/20 11:02:43;;;;;;;25.77;14.10;;;4.50;99.90;;;;;;5050242;28;20025;-54
2022/11/20 11:05:31;;;;;;;26.57;13.70;;;4.50;99.90;;;;;;5050218;28;20033;-52
2022/11/20 11:07:58;;;;;;;25.07;14.37;;;4.50;99.90;;;;;;5050313;28;20024;-53
2022/11/20 11:10:28;;;;;;;27.23;14.67;;;4.60;99.90;;;;;;5050306;28;20041;-48
2022/11/20 11:12:54;;;;;;;25.17;13.93;;;4.50;99.90;;;;;;5048946;28;20029;-52
2022/11/20 11:15:26;;;;;;;26.03;13.93;;;4.40;99.90;;;;;;5050026;28;20082;-53
2022/11/20 11:17:52;;;;;;;23.90;13.57;;;4.40;99.90;;;;;;5049849;28;20025;-54
2022/11/20 11:20:25;;;;;;;26.43;14.37;;;4.30;99.90;;;;;;5050010;28;20024;-52
2022/11/20 11:22:52;;;;;;;28.80;13.17;;;4.20;99.90;;;;;;5050113;28;20029;-53
2022/11/20 11:25:28;;;;;;;25.17;14.50;;;4.20;99.90;;;;;;5050051;28;20028;-52
2022/11/20 11:27:56;;;;;;;23.53;13.50;;;4.20;99.90;;;;;;5049844;28;20453;-50
2022/11/20 11:30:24;;;;;;;33.10;16.05;;;4.20;99.90;;;;;;5049766;28;20312;-51
2022/11/20 11:32:50;;;;;;;38.40;21.47;;;4.20;99.90;;;;;;5049989;28;20048;-50
2022/11/20 11:35:23;;;;;;;31.80;15.93;;;4.30;99.90;;;;;;5050084;28;20037;-52
2022/11/20 11:37:50;;;;;;;27.63;13.50;;;4.30;99.90;;;;;;5049892;28;20280;-52
2022/11/20 11:40:18;;;;;;;27.57;14.77;;;4.30;99.90;;;;;;5052321;28;20521;-52
2022/11/20 11:42:57;;;;;;;28.93;14.53;;;4.30;99.90;;;;;;5053573;28;20033;-53
2022/11/20 11:45:24;;;;;;;25.33;14.03;;;4.40;99.90;;;;;;5053588;28;20094;-50
2022/11/20 11:47:51;;;;;;;26.70;14.30;;;4.40;99.90;;;;;;5053392;28;20041;-49
2022/11/20 11:50:21;;;;;;;27.40;14.03;;;4.40;99.90;;;;;;5053419;28;20040;-51
2022/11/20 11:53:11;;;;;;;26.45;13.50;;;4.40;99.90;;;;;;5053610;28;20035;-53
2022/11/20 11:55:54;;;;;;;26.57;14.33;;;4.40;99.90;;;;;;5053257;28;20413;-55
2022/11/20 11:58:44;;;;;;;29.07;14.43;;;4.50;99.90;;;;;;5053198;28;20036;-53
2022/11/20 12:01:18;;;;;;;25.20;13.13;;;4.50;99.90;;;;;;5053368;28;20087;-50
2022/11/20 12:04:09;;;;;;;26.20;12.83;;;4.50;99.90;;;;;;5053230;28;20128;-54
2022/11/20 12:06:38;;;;;;;27.73;14.03;;;4.50;99.90;;;;;;5045393;28;20049;-49
2022/11/20 12:09:08;;;;;;;28.90;14.27;;;4.50;99.90;;;;;;5053199;28;20040;-54
2022/11/20 12:11:45;;;;;;;28.57;14.80;;;4.40;99.90;;;;;;5053065;28;20036;-54
2022/11/20 12:14:23;;;;;;;29.90;15.47;;;4.50;99.90;;;;;;5052891;28;20401;-48
2022/11/20 12:16:50;;;;;;;29.17;14.40;;;4.50;99.90;;;;;;5052716;28;20219;-52
2022/11/20 12:19:16;;;;;;;27.27;14.37;;;4.50;99.90;;;;;;5052874;28;20437;-50
2022/11/20 12:22:13;;;;;;;34.73;19.43;;;4.50;99.90;;;;;;5052934;28;20116;-54
2022/11/20 12:25:03;;;;;;;32.70;18.00;;;4.50;99.90;;;;;;5052897;28;20029;-52
2022/11/20 12:27:56;;;;;;;29.17;16.40;;;4.40;99.90;;;;;;5051439;28;20036;-51
2022/11/20 12:30:24;;;;;;;28.30;13.83;;;4.50;99.90;;;;;;5052966;28;20639;-54
2022/11/20 12:33:02;;;;;;;30.90;15.43;;;4.60;99.90;;;;;;5051370;28;20032;-50
2022/11/20 12:35:31;;;;;;;27.90;14.30;;;4.60;99.90;;;;;;5051281;28;20033;-53
2022/11/20 12:38:03;;;;;;;29.20;14.35;;;4.60;99.90;;;;;;5052475;28;20494;-49
2022/11/20 12:40:51;;;;;;;28.03;14.77;;;4.70;99.90;;;;;;5034505;28;20492;-51
2022/11/20 12:46:40;;;;;;;26.23;14.30;;;4.70;99.90;;;;;;5052631;28;20395;-53
2022/11/20 12:49:37;;;;;;;31.20;14.80;;;4.60;99.90;;;;;;5052276;28;20036;-51
2022/11/20 12:52:24;;;;;;;28.23;14.80;;;4.70;99.90;;;;;;5051486;28;20025;-53
2022/11/20 12:54:53;;;;;;;26.17;13.73;;;4.80;99.90;;;;;;5052129;28;20029;-52
2022/11/20 12:57:30;;;;;;;27.58;14.00;;;4.80;99.90;;;;;;5052167;28;20116;-54